sensor_id;sensor_type;location;lat;lon;timestamp;pressure;altitude;pressure_sealevel;temperature;humidity
63622;BME280;49770;47.544;19.074;2023-08-17T04:13:44;100519.13;;;18.92;100.00
63622;BME280;49770;47.544;19.074;2023-08-17T04:16:48;100518.53;;;18.88;100.00
63622;BME280;49770;47.544;19.074;2023-08-17T04:19:51;100523.03;;;18.88;100.00
63622;BME280;49770;47.544;19.074;2023-08-17T04:22:54;100531.25;;;18.86;100.00
63622;BME280;49770;47.544;19.074;2023-08-17T04:25:57;100530.28;;;18.87;100.00
63622;BME280;49770;47.544;19.074;2023-08-17T04:29:02;100536.84;;;18.94;100.00
63622;BME280;49770;47.544;19.074;2023-08-17T04:32:05;100549.78;;;19.12;100.00
63622;BME280;49770;47.544;19.074;2023-08-17T04:35:08;100545.59;;;19.19;100.00
63622;BME280;49770;47.544;19.074;2023-08-17T04:38:11;100537.03;;;19.14;100.00
63622;BME280;49770;47.544;19.074;2023-08-17T04:41:14;100550.59;;;19.12;100.00
63622;BME280;49770;47.544;19.074;2023-08-17T04:44:16;100551.34;;;19.15;100.00
63622;BME280;49770;47.544;19.074;2023-08-17T04:47:20;100552.31;;;19.13;100.00
63622;BME280;49770;47.544;19.074;2023-08-17T04:50:23;100550.59;;;19.12;100.00
63622;BME280;49770;47.544;19.074;2023-08-17T04:53:27;100551.78;;;19.20;100.00
63622;BME280;49770;47.544;19.074;2023-08-17T04:56:30;100550.41;;;19.37;100.00
63622;BME280;49770;47.544;19.074;2023-08-17T04:59:33;100551.22;;;19.37;100.00
63622;BME280;49770;47.544;19.074;2023-08-17T05:02:36;100554.97;;;19.46;100.00
63622;BME280;49770;47.544;19.074;2023-08-17T05:05:39;100553.81;;;19.60;100.00
63622;BME280;49770;47.544;19.074;2023-08-17T05:08:42;100540.75;;;19.77;100.00
63622;BME280;49770;47.544;19.074;2023-08-17T05:11:45;100546.25;;;19.75;100.00
63622;BME280;49770;47.544;19.074;2023-08-17T05:14:48;100547.03;;;19.87;100.00
63622;BME280;49770;47.544;19.074;2023-08-17T05:17:51;100553.50;;;19.96;100.00
63622;BME280;49770;47.544;19.074;2023-08-17T05:20:54;100554.72;;;20.13;100.00
63622;BME280;49770;47.544;19.074;2023-08-17T05:23:57;100561.50;;;20.49;100.00
63622;BME280;49770;47.544;19.074;2023-08-17T05:27:00;100555.91;;;20.71;100.00
63622;BME280;49770;47.544;19.074;2023-08-17T05:30:04;100560.53;;;21.10;100.00
63622;BME280;49770;47.544;19.074;2023-08-17T05:33:07;100553.84;;;21.54;100.00
63622;BME280;49770;47.544;19.074;2023-08-17T05:36:10;100558.09;;;21.86;100.00
63622;BME280;49770;47.544;19.074;2023-08-17T05:39:13;100559.50;;;22.28;100.00
63622;BME280;49770;47.544;19.074;2023-08-17T05:42:16;100556.19;;;22.72;100.00
63622;BME280;49770;47.544;19.074;2023-08-17T05:45:19;100566.44;;;23.15;100.00
63622;BME280;49770;47.544;19.074;2023-08-17T05:48:22;100570.41;;;23.39;100.00
63622;BME280;49770;47.544;19.074;2023-08-17T05:51:24;100573.78;;;23.41;100.00
63622;BME280;49770;47.544;19.074;2023-08-17T05:54:28;100571.81;;;23.69;100.00
63622;BME280;49770;47.544;19.074;2023-08-17T05:57:30;100569.00;;;23.79;100.00
63622;BME280;49770;47.544;19.074;2023-08-17T06:00:33;100564.06;;;23.75;100.00
63622;BME280;49770;47.544;19.074;2023-08-17T06:03:37;100571.81;;;23.69;100.00
63622;BME280;49770;47.544;19.074;2023-08-17T06:06:39;100568.47;;;23.76;100.00
63622;BME280;49770;47.544;19.074;2023-08-17T06:09:43;100564.91;;;24.28;100.00
63622;BME280;49770;47.544;19.074;2023-08-17T06:12:45;100557.19;;;24.85;100.00
63622;BME280;49770;47.544;19.074;2023-08-17T06:15:48;100564.34;;;26.02;100.00
63622;BME280;49770;47.544;19.074;2023-08-17T06:18:51;100558.25;;;26.40;100.00
63622;BME280;49770;47.544;19.074;2023-08-17T06:21:54;100558.75;;;25.87;100.00
63622;BME280;49770;47.544;19.074;2023-08-17T06:24:57;100558.03;;;26.02;100.00
63622;BME280;49770;47.544;19.074;2023-08-17T06:28:01;100565.72;;;25.73;100.00
63622;BME280;49770;47.544;19.074;2023-08-17T06:31:03;100562.69;;;25.51;100.00
63622;BME280;49770;47.544;19.074;2023-08-17T06:34:06;100554.03;;;25.48;100.00
63622;BME280;49770;47.544;19.074;2023-08-17T06:37:09;100556.53;;;24.99;100.00
63622;BME280;49770;47.544;19.074;2023-08-17T06:40:12;100555.50;;;24.92;100.00
63622;BME280;49770;47.544;19.074;2023-08-17T06:43:15;100553.31;;;25.04;100.00
63622;BME280;49770;47.544;19.074;2023-08-17T06:46:20;100547.38;;;24.92;100.00
63622;BME280;49770;47.544;19.074;2023-08-17T06:49:23;100536.34;;;25.10;100.00
63622;BME280;49770;47.544;19.074;2023-08-17T06:52:26;100538.56;;;25.48;100.00
63622;BME280;49770;47.544;19.074;2023-08-17T06:55:28;100532.09;;;25.74;100.00
63622;BME280;49770;47.544;19.074;2023-08-17T06:58:31;100538.41;;;25.33;100.00
63622;BME280;49770;47.544;19.074;2023-08-17T07:01:34;100539.25;;;25.42;100.00
63622;BME280;49770;47.544;19.074;2023-08-17T07:04:37;100547.06;;;25.28;100.00
63622;BME280;49770;47.544;19.074;2023-08-17T07:07:40;100553.16;;;25.14;100.00
63622;BME280;49770;47.544;19.074;2023-08-17T07:10:43;100549.09;;;25.10;100.00
63622;BME280;49770;47.544;19.074;2023-08-17T07:13:45;100543.50;;;25.11;100.00
63622;BME280;49770;47.544;19.074;2023-08-17T07:16:49;100552.66;;;25.27;100.00
63622;BME280;49770;47.544;19.074;2023-08-17T07:19:51;100548.25;;;25.51;100.00
63622;BME280;49770;47.544;19.074;2023-08-17T07:23:15;100562.03;;;25.58;100.00
63622;BME280;49770;47.544;19.074;2023-08-17T07:26:17;100561.97;;;25.16;100.00
63622;BME280;49770;47.544;19.074;2023-08-17T07:29:21;100555.78;;;24.72;100.00
63622;BME280;49770;47.544;19.074;2023-08-17T07:32:24;100559.56;;;24.45;100.00
63622;BME280;49770;47.544;19.074;2023-08-17T07:35:28;100560.06;;;24.40;100.00
63622;BME280;49770;47.544;19.074;2023-08-17T07:38:31;100554.97;;;24.45;100.00
63622;BME280;49770;47.544;19.074;2023-08-17T07:41:34;100551.63;;;24.52;100.00
63622;BME280;49770;47.544;19.074;2023-08-17T07:44:36;100545.63;;;24.31;100.00
63622;BME280;49770;47.544;19.074;2023-08-17T07:47:41;100551.94;;;24.40;100.00
63622;BME280;49770;47.544;19.074;2023-08-17T07:50:48;100553.09;;;24.38;100.00
63622;BME280;49770;47.544;19.074;2023-08-17T07:53:51;100553.16;;;24.54;100.00
63622;BME280;49770;47.544;19.074;2023-08-17T07:56:54;100546.97;;;24.70;100.00
63622;BME280;49770;47.544;19.074;2023-08-17T07:59:57;100551.78;;;24.93;100.00
63622;BME280;49770;47.544;19.074;2023-08-17T08:02:59;100549.25;;;25.16;100.00
63622;BME280;49770;47.544;19.074;2023-08-17T08:06:02;100545.84;;;25.23;100.00
63622;BME280;49770;47.544;19.074;2023-08-17T08:09:05;100547.38;;;25.50;100.00
63622;BME280;49770;47.544;19.074;2023-08-17T08:12:09;100549.06;;;25.93;100.00
63622;BME280;49770;47.544;19.074;2023-08-17T08:15:11;100550.53;;;26.60;100.00
63622;BME280;49770;47.544;19.074;2023-08-17T08:18:14;100554.59;;;27.43;100.00
63622;BME280;49770;47.544;19.074;2023-08-17T08:21:17;100549.25;;;28.48;100.00
63622;BME280;49770;47.544;19.074;2023-08-17T08:24:19;100548.75;;;29.40;90.56
63622;BME280;49770;47.544;19.074;2023-08-17T08:27:39;100546.38;;;28.87;89.31
63622;BME280;49770;47.544;19.074;2023-08-17T08:30:42;100539.56;;;28.83;80.69
63622;BME280;49770;47.544;19.074;2023-08-17T08:33:45;100537.00;;;29.18;83.20
63622;BME280;49770;47.544;19.074;2023-08-17T08:36:48;100536.38;;;29.66;79.84
63622;BME280;49770;47.544;19.074;2023-08-17T08:39:52;100539.59;;;29.77;71.22
63622;BME280;49770;47.544;19.074;2023-08-17T08:42:57;100542.47;;;30.32;67.93
63622;BME280;49770;47.544;19.074;2023-08-17T08:46:00;100537.50;;;30.49;62.58
63622;BME280;49770;47.544;19.074;2023-08-17T08:49:06;100541.63;;;30.38;59.82
63622;BME280;49770;47.544;19.074;2023-08-17T08:52:13;100540.47;;;30.61;59.80
63622;BME280;49770;47.544;19.074;2023-08-17T08:55:23;100539.72;;;30.95;59.21
63622;BME280;49770;47.544;19.074;2023-08-17T08:58:29;100537.25;;;30.02;60.28
63622;BME280;49770;47.544;19.074;2023-08-17T09:01:33;100536.03;;;29.48;62.78
63622;BME280;49770;47.544;19.074;2023-08-17T09:04:38;100545.31;;;29.31;60.71
63622;BME280;49770;47.544;19.074;2023-08-17T09:07:42;100536.88;;;29.04;62.31
63622;BME280;49770;47.544;19.074;2023-08-17T09:10:45;100542.09;;;28.84;62.20
63622;BME280;49770;47.544;19.074;2023-08-17T09:13:48;100529.34;;;28.33;66.51
63622;BME280;49770;47.544;19.074;2023-08-17T09:16:55;100534.59;;;27.89;67.60
63622;BME280;49770;47.544;19.074;2023-08-17T09:20:02;100527.75;;;27.40;69.00
63622;BME280;49770;47.544;19.074;2023-08-17T09:23:14;100537.94;;;27.38;70.51
63622;BME280;49770;47.544;19.074;2023-08-17T09:26:19;100524.31;;;26.99;70.41
63622;BME280;49770;47.544;19.074;2023-08-17T09:29:22;100521.47;;;26.84;70.47
63622;BME280;49770;47.544;19.074;2023-08-17T09:32:30;100518.56;;;26.62;71.23
63622;BME280;49770;47.544;19.074;2023-08-17T09:35:33;100520.84;;;26.50;71.60
63622;BME280;49770;47.544;19.074;2023-08-17T09:38:36;100518.16;;;26.42;72.14
63622;BME280;49770;47.544;19.074;2023-08-17T09:41:41;100511.00;;;26.73;71.82
63622;BME280;49770;47.544;19.074;2023-08-17T09:44:45;100516.09;;;27.46;68.01
63622;BME280;49770;47.544;19.074;2023-08-17T09:47:48;100511.94;;;28.34;65.15
63622;BME280;49770;47.544;19.074;2023-08-17T09:50:51;100508.81;;;28.52;64.67
63622;BME280;49770;47.544;19.074;2023-08-17T09:53:53;100500.53;;;29.04;62.77
63622;BME280;49770;47.544;19.074;2023-08-17T09:57:02;100498.88;;;29.31;59.59
63622;BME280;49770;47.544;19.074;2023-08-17T10:00:06;100501.16;;;29.28;61.97
63622;BME280;49770;47.544;19.074;2023-08-17T10:03:09;100496.22;;;29.16;59.75
63622;BME280;49770;47.544;19.074;2023-08-17T10:06:17;100489.88;;;29.09;62.29
63622;BME280;49770;47.544;19.074;2023-08-17T10:09:35;100493.84;;;29.28;62.22
63622;BME280;49770;47.544;19.074;2023-08-17T10:12:44;100496.31;;;29.80;60.35
63622;BME280;49770;47.544;19.074;2023-08-17T10:19:06;100489.25;;;29.36;62.03
63622;BME280;49770;47.544;19.074;2023-08-17T10:25:24;100507.91;;;28.00;65.75
63622;BME280;49770;47.544;19.074;2023-08-17T10:28:31;100500.66;;;27.92;66.80
63622;BME280;49770;47.544;19.074;2023-08-17T10:31:35;100501.06;;;27.74;66.87
63622;BME280;49770;47.544;19.074;2023-08-17T10:34:38;100499.03;;;27.52;68.24
63622;BME280;49770;47.544;19.074;2023-08-17T10:37:42;100493.56;;;27.52;66.87
63622;BME280;49770;47.544;19.074;2023-08-17T10:41:08;100493.09;;;27.49;66.39
63622;BME280;49770;47.544;19.074;2023-08-17T10:44:12;100491.13;;;27.42;67.03
63622;BME280;49770;47.544;19.074;2023-08-17T10:50:28;100498.91;;;27.45;66.63
63622;BME280;49770;47.544;19.074;2023-08-17T10:53:34;100495.03;;;27.78;67.13
63622;BME280;49770;47.544;19.074;2023-08-17T10:56:40;100503.75;;;27.89;66.59
63622;BME280;49770;47.544;19.074;2023-08-17T10:59:43;100497.75;;;27.93;66.04
63622;BME280;49770;47.544;19.074;2023-08-17T11:02:59;100493.25;;;28.01;63.78
63622;BME280;49770;47.544;19.074;2023-08-17T11:06:16;100496.12;;;27.69;64.21
63622;BME280;49770;47.544;19.074;2023-08-17T11:09:21;100492.88;;;27.74;64.10
63622;BME280;49770;47.544;19.074;2023-08-17T11:12:25;100494.56;;;27.90;64.12
63622;BME280;49770;47.544;19.074;2023-08-17T11:15:40;100498.22;;;27.67;63.66
63622;BME280;49770;47.544;19.074;2023-08-17T11:18:47;100499.47;;;27.41;65.46
63622;BME280;49770;47.544;19.074;2023-08-17T11:21:53;100502.00;;;27.81;64.83
63622;BME280;49770;47.544;19.074;2023-08-17T11:24:56;100491.84;;;27.36;65.13
63622;BME280;49770;47.544;19.074;2023-08-17T11:28:01;100490.25;;;27.42;66.42
63622;BME280;49770;47.544;19.074;2023-08-17T11:31:09;100495.91;;;27.55;66.34
63622;BME280;49770;47.544;19.074;2023-08-17T11:34:16;100488.81;;;27.69;68.08
63622;BME280;49770;47.544;19.074;2023-08-17T11:37:19;100489.28;;;27.73;66.02
63622;BME280;49770;47.544;19.074;2023-08-17T11:40:25;100494.09;;;27.71;65.63
63622;BME280;49770;47.544;19.074;2023-08-17T11:43:29;100493.34;;;27.77;66.80
63622;BME280;49770;47.544;19.074;2023-08-17T11:46:32;100488.91;;;27.61;67.07
63622;BME280;49770;47.544;19.074;2023-08-17T11:49:35;100487.66;;;27.64;67.04
63622;BME280;49770;47.544;19.074;2023-08-17T11:52:40;100489.47;;;27.87;65.53
63622;BME280;49770;47.544;19.074;2023-08-17T11:55:48;100489.94;;;27.75;65.54
63622;BME280;49770;47.544;19.074;2023-08-17T11:58:57;100494.47;;;27.83;67.18
63622;BME280;49770;47.544;19.074;2023-08-17T12:02:03;100482.69;;;27.52;71.26
63622;BME280;49770;47.544;19.074;2023-08-17T12:05:07;100482.44;;;27.62;68.01
63622;BME280;49770;47.544;19.074;2023-08-17T12:08:09;100478.50;;;27.65;67.18
63622;BME280;49770;47.544;19.074;2023-08-17T12:11:12;100470.91;;;27.52;66.80
63622;BME280;49770;47.544;19.074;2023-08-17T12:14:15;100478.50;;;27.80;69.22
63622;BME280;49770;47.544;19.074;2023-08-17T12:17:19;100474.91;;;27.64;66.58
63622;BME280;49770;47.544;19.074;2023-08-17T12:20:22;100468.72;;;27.85;68.32
63622;BME280;49770;47.544;19.074;2023-08-17T12:23:25;100468.28;;;28.19;64.96
63622;BME280;49770;47.544;19.074;2023-08-17T12:26:27;100467.37;;;28.11;67.34
63622;BME280;49770;47.544;19.074;2023-08-17T12:29:32;100465.22;;;28.22;64.98
63622;BME280;49770;47.544;19.074;2023-08-17T12:32:35;100462.31;;;28.23;65.97
63622;BME280;49770;47.544;19.074;2023-08-17T12:35:38;100461.25;;;28.40;64.91
63622;BME280;49770;47.544;19.074;2023-08-17T12:38:41;100461.66;;;28.58;63.64
63622;BME280;49770;47.544;19.074;2023-08-17T12:41:47;100456.75;;;28.90;60.54
63622;BME280;49770;47.544;19.074;2023-08-17T12:44:50;100455.75;;;28.98;58.72
63622;BME280;49770;47.544;19.074;2023-08-17T12:47:53;100446.25;;;29.16;59.24
63622;BME280;49770;47.544;19.074;2023-08-17T12:50:55;100437.00;;;29.45;57.83
63622;BME280;49770;47.544;19.074;2023-08-17T12:53:59;100442.31;;;29.25;58.21
63622;BME280;49770;47.544;19.074;2023-08-17T12:57:02;100433.72;;;28.78;60.27
63622;BME280;49770;47.544;19.074;2023-08-17T13:00:10;100426.94;;;28.74;59.67
63622;BME280;49770;47.544;19.074;2023-08-17T13:03:12;100430.66;;;28.66;60.55
63622;BME280;49770;47.544;19.074;2023-08-17T13:06:17;100426.16;;;28.80;61.19
63622;BME280;49770;47.544;19.074;2023-08-17T13:09:20;100421.94;;;28.77;61.01
63622;BME280;49770;47.544;19.074;2023-08-17T13:12:23;100424.63;;;28.92;60.84
63622;BME280;49770;47.544;19.074;2023-08-17T13:15:26;100415.19;;;29.24;60.68
63622;BME280;49770;47.544;19.074;2023-08-17T13:18:29;100413.69;;;29.21;62.13
63622;BME280;49770;47.544;19.074;2023-08-17T13:21:32;100412.19;;;29.12;60.04
63622;BME280;49770;47.544;19.074;2023-08-17T13:24:35;100407.38;;;28.70;62.03
63622;BME280;49770;47.544;19.074;2023-08-17T13:27:37;100405.72;;;28.69;62.83
63622;BME280;49770;47.544;19.074;2023-08-17T13:30:40;100404.78;;;29.05;62.08
63622;BME280;49770;47.544;19.074;2023-08-17T13:33:43;100417.34;;;28.78;61.09
63622;BME280;49770;47.544;19.074;2023-08-17T13:36:46;100407.44;;;28.99;62.30
63622;BME280;49770;47.544;19.074;2023-08-17T13:39:49;100402.41;;;28.96;61.71
63622;BME280;49770;47.544;19.074;2023-08-17T13:42:51;100397.72;;;28.68;62.60
63622;BME280;49770;47.544;19.074;2023-08-17T13:45:54;100401.56;;;28.73;63.76
63622;BME280;49770;47.544;19.074;2023-08-17T13:48:57;100390.69;;;29.02;62.03
63622;BME280;49770;47.544;19.074;2023-08-17T13:52:00;100393.78;;;28.99;61.84
63622;BME280;49770;47.544;19.074;2023-08-17T13:55:03;100393.09;;;28.68;62.38
63622;BME280;49770;47.544;19.074;2023-08-17T13:58:06;100387.97;;;28.58;63.39
63622;BME280;49770;47.544;19.074;2023-08-17T14:01:08;100392.25;;;28.24;67.62
63622;BME280;49770;47.544;19.074;2023-08-17T14:04:14;100389.66;;;27.40;69.73
63622;BME280;49770;47.544;19.074;2023-08-17T14:07:17;100390.13;;;27.29;70.40
63622;BME280;49770;47.544;19.074;2023-08-17T14:10:20;100387.31;;;27.22;71.16
63622;BME280;49770;47.544;19.074;2023-08-17T14:13:39;100389.84;;;27.24;71.92
63622;BME280;49770;47.544;19.074;2023-08-17T14:16:42;100396.03;;;27.17;72.08
63622;BME280;49770;47.544;19.074;2023-08-17T14:19:45;100398.09;;;27.15;72.97
63622;BME280;49770;47.544;19.074;2023-08-17T14:22:48;100405.59;;;26.98;74.97
63622;BME280;49770;47.544;19.074;2023-08-17T14:25:51;100397.16;;;26.85;81.52
63622;BME280;49770;47.544;19.074;2023-08-17T14:28:54;100406.44;;;26.52;88.18
63622;BME280;49770;47.544;19.074;2023-08-17T14:31:57;100388.78;;;26.24;100.00
63622;BME280;49770;47.544;19.074;2023-08-17T14:35:00;100382.97;;;25.96;100.00
63622;BME280;49770;47.544;19.074;2023-08-17T14:38:02;100385.41;;;25.82;100.00
63622;BME280;49770;47.544;19.074;2023-08-17T14:41:05;100393.66;;;25.58;100.00
63622;BME280;49770;47.544;19.074;2023-08-17T14:44:10;100388.94;;;25.35;100.00
63622;BME280;49770;47.544;19.074;2023-08-17T14:47:13;100384.69;;;25.32;100.00
63622;BME280;49770;47.544;19.074;2023-08-17T14:50:22;100393.69;;;25.33;100.00
63622;BME280;49770;47.544;19.074;2023-08-17T14:53:30;100379.63;;;25.21;100.00
63622;BME280;49770;47.544;19.074;2023-08-17T14:56:33;100380.50;;;25.05;100.00
63622;BME280;49770;47.544;19.074;2023-08-17T14:59:36;100381.53;;;25.03;100.00
63622;BME280;49770;47.544;19.074;2023-08-17T15:02:40;100380.50;;;24.96;100.00
63622;BME280;49770;47.544;19.074;2023-08-17T15:05:43;100381.00;;;24.58;100.00
63622;BME280;49770;47.544;19.074;2023-08-17T15:08:45;100371.09;;;24.16;100.00
63622;BME280;49770;47.544;19.074;2023-08-17T15:11:48;100371.19;;;23.54;100.00
63622;BME280;49770;47.544;19.074;2023-08-17T15:14:53;100371.22;;;23.28;100.00
63622;BME280;49770;47.544;19.074;2023-08-17T15:17:56;100372.25;;;23.09;100.00
63622;BME280;49770;47.544;19.074;2023-08-17T15:20:58;100374.84;;;22.92;100.00
63622;BME280;49770;47.544;19.074;2023-08-17T15:24:01;100371.16;;;22.75;100.00
63622;BME280;49770;47.544;19.074;2023-08-17T15:27:04;100363.53;;;22.70;100.00
63622;BME280;49770;47.544;19.074;2023-08-17T15:30:08;100371.66;;;22.70;100.00
63622;BME280;49770;47.544;19.074;2023-08-17T15:33:10;100377.75;;;22.72;100.00
63622;BME280;49770;47.544;19.074;2023-08-17T15:36:13;100376.81;;;22.64;100.00
63622;BME280;49770;47.544;19.074;2023-08-17T15:39:16;100369.56;;;22.64;100.00
63622;BME280;49770;47.544;19.074;2023-08-17T15:42:19;100370.50;;;22.73;100.00
63622;BME280;49770;47.544;19.074;2023-08-17T15:45:21;100370.53;;;22.81;100.00
63622;BME280;49770;47.544;19.074;2023-08-17T15:48:24;100367.31;;;22.78;100.00
63622;BME280;49770;47.544;19.074;2023-08-17T15:51:27;100370.00;;;22.78;100.00
